Time;durP1;ratioP1;P1;durP2;ratioP2;P2;SDS_P1;SDS_P2;PMS_P1;PMS_P2;Temp;Humidity;BMP_temperature;BMP_pressure;BME280_temperature;BME280_humidity;BME280_pressure;Samples;Min_cycle;Max_cycle;Signal;HPM_P1;HPM_P2
2022/09/20 00:01:22;;;;;;;3.12;2.83;;;;;;;11.14;71.60;99725.25;7712484;32;38889;-81
2022/09/20 00:05:40;;;;;;;4.60;3.10;;;;;;;11.39;70.54;99728.97;7737999;32;36209;-80
2022/09/20 00:09:56;;;;;;;6.15;3.33;;;;;;;11.47;69.73;99733.84;7739039;32;39292;-82
2022/09/20 00:14:12;;;;;;;3.37;2.60;;;;;;;11.72;68.93;99722.00;7738366;32;40797;-81
2022/09/20 00:18:28;;;;;;;4.35;2.80;;;;;;;11.45;69.54;99719.66;7739044;32;38699;-82
2022/09/20 00:22:44;;;;;;;2.78;2.42;;;;;;;11.60;68.70;99714.13;7739131;32;38639;-81
2022/09/20 00:27:00;;;;;;;2.15;1.95;;;;;;;11.32;69.20;99723.00;7738623;32;40069;-80
2022/09/20 00:31:16;;;;;;;3.55;2.28;;;;;;;11.15;69.52;99723.31;7738872;32;40638;-82
2022/09/20 00:35:32;;;;;;;3.72;2.30;;;;;;;11.32;68.83;99723.00;7738916;32;37839;-80
2022/09/20 00:39:48;;;;;;;3.37;2.17;;;;;;;11.32;69.13;99720.28;7738934;32;37191;-80
2022/09/20 00:44:46;;;;;;;4.18;2.20;;;;;;;11.03;70.05;99726.34;7737608;32;39507;-82
2022/09/20 00:49:12;;;;;;;3.85;2.00;;;;;;;11.17;69.69;99718.41;7732079;32;39739;-81
2022/09/20 00:53:43;;;;;;;3.03;2.03;;;;;;;11.26;69.32;99723.00;7710614;32;37536;-81
2022/09/20 00:57:59;;;;;;;4.03;1.95;;;;;;;11.35;68.62;99730.59;7709935;32;38076;-81
2022/09/20 01:02:19;;;;;;;4.28;2.15;;;;;;;11.52;67.69;99731.09;7711804;32;40029;-81
2022/09/20 01:06:35;;;;;;;2.37;1.98;;;;;;;11.49;67.34;99734.37;7710583;32;39640;-81
2022/09/20 01:10:52;;;;;;;2.87;1.80;;;;;;;11.50;67.48;99730.56;7710469;32;37553;-82
2022/09/20 01:15:09;;;;;;;1.67;1.58;;;;;;;11.71;66.40;99722.25;7711730;32;37062;-82
2022/09/20 01:19:44;;;;;;;2.87;1.80;;;;;;;11.68;66.38;99720.94;7710332;32;38989;-82
2022/09/20 01:24:10;;;;;;;2.20;1.80;;;;;;;11.41;66.98;99721.31;7697750;32;40117;-81
2022/09/20 01:28:27;;;;;;;2.50;1.77;;;;;;;11.61;66.23;99723.97;7711511;32;38626;-81
2022/09/20 01:33:01;;;;;;;2.42;1.70;;;;;;;11.72;65.68;99723.91;7725167;32;36951;-81
2022/09/20 01:37:25;;;;;;;2.33;1.90;;;;;;;11.53;65.50;99726.47;7737640;32;40059;-82
2022/09/20 01:41:49;;;;;;;2.72;1.80;;;;;;;11.17;66.97;99735.56;7738136;32;39963;-81
2022/09/20 01:46:31;;;;;;;2.08;1.73;;;;;;;11.57;66.08;99730.25;7738054;32;37558;-79
2022/09/20 01:51:12;;;;;;;2.00;1.80;;;;;;;11.12;68.77;99738.31;7738079;32;36989;-81
2022/09/20 01:55:56;;;;;;;3.22;2.00;;;;;;;11.53;67.21;99737.38;7736664;32;39360;-81
2022/09/20 02:00:49;;;;;;;2.22;1.95;;;;;;;11.21;68.33;99738.56;7737942;32;40156;-82
2022/09/20 02:05:13;;;;;;;2.28;2.08;;;;;;;11.33;68.24;99749.19;7708605;32;38527;-83
2022/09/20 02:10:06;;;;;;;2.00;1.80;;;;;;;11.30;68.37;99749.72;7710976;32;36997;-81
2022/09/20 02:14:36;;;;;;;2.93;2.10;;;;;;;11.61;67.40;99747.72;7710916;32;39354;-82
2022/09/20 02:19:30;;;;;;;2.30;1.75;;;;;;;11.35;68.19;99755.16;7717424;32;40160;-83
2022/09/20 02:23:55;;;;;;;2.22;1.90;;;;;;;10.96;70.48;99761.28;7737156;32;37832;-82
2022/09/20 02:28:37;;;;;;;2.30;1.80;;;;;;;11.28;69.64;99759.03;7737501;32;37186;-80
2022/09/20 02:33:15;;;;;;;3.83;2.00;;;;;;;11.31;69.22;99759.56;7736182;32;39985;-82
2022/09/20 02:38:01;;;;;;;1.70;1.60;;;;;;;11.06;70.23;99755.81;7737384;32;40016;-81
2022/09/20 02:42:24;;;;;;;2.92;1.73;;;;;;;10.92;70.77;99757.44;7736918;32;37740;-83
2022/09/20 02:46:52;;;;;;;4.28;2.20;;;;;;;10.68;71.71;99766.22;7736332;32;37864;-82
2022/09/20 02:51:23;;;;;;;2.47;2.20;;;;;;;10.75;71.55;99766.75;7716952;32;39367;-82
2022/09/20 02:56:00;;;;;;;3.05;1.90;;;;;;;10.94;70.35;99763.47;7709026;32;39886;-80
2022/09/20 03:00:21;;;;;;;5.53;2.17;;;;;;;11.19;69.65;99759.84;7710108;32;37966;-83
2022/09/20 03:05:00;;;;;;;4.80;2.15;;;;;;;11.18;69.51;99772.69;7709076;32;37800;-82
2022/09/20 03:10:05;;;;;;;4.65;2.20;;;;;;;10.87;70.65;99774.66;7712410;32;40014;-83
2022/09/20 03:15:05;;;;;;;4.20;2.12;;;;;;;10.24;72.20;99778.38;7706143;32;39615;-83
2022/09/20 03:19:40;;;;;;;3.85;1.75;;;;;;;10.94;69.81;99775.19;7713075;32;38704;-83
2022/09/20 03:24:08;;;;;;;3.42;2.08;;;;;;;10.94;70.34;99782.56;7713439;32;37460;-83
2022/09/20 03:28:35;;;;;;;3.80;2.42;;;;;;;10.92;70.67;99782.00;7713141;32;40930;-82
2022/09/20 03:32:54;;;;;;;4.55;2.25;;;;;;;10.92;70.43;99784.72;7713020;32;40852;-81
2022/09/20 03:37:56;;;;;;;2.80;2.28;;;;;;;10.69;70.91;99776.00;7723044;32;38713;-81
2022/09/20 03:42:18;;;;;;;2.78;2.20;;;;;;;10.91;70.08;99773.00;7739295;32;36648;-82
2022/09/20 03:46:43;;;;;;;3.10;2.07;;;;;;;11.14;69.46;99773.50;7738428;32;39462;-80
2022/09/20 03:50:59;;;;;;;4.68;2.25;;;;;;;11.16;69.35;99777.63;7718742;32;39900;-83
2022/09/20 03:55:39;;;;;;;4.18;2.25;;;;;;;11.09;69.59;99777.91;7712501;32;38639;-80
2022/09/20 04:00:09;;;;;;;3.87;2.30;;;;;;;11.44;68.38;99761.72;7698749;32;36975;-82
2022/09/20 04:04:40;;;;;;;2.10;1.90;;;;;;;11.51;67.53;99773.16;7711477;32;39235;-82
2022/09/20 04:09:33;;;;;;;2.90;2.10;;;;;;;11.49;67.49;99774.50;7732710;32;40955;-80
2022/09/20 04:13:59;;;;;;;2.80;2.05;;;;;;;11.14;68.16;99778.97;7738795;32;38661;-82
2022/09/20 04:18:44;;;;;;;4.57;2.17;;;;;;;10.83;68.59;99774.38;7737955;32;36716;-82
2022/09/20 04:23:09;;;;;;;2.70;2.20;;;;;;;10.85;68.48;99777.66;7738282;32;39187;-82
2022/09/20 04:27:32;;;;;;;2.28;2.08;;;;;;;10.93;68.05;99778.19;7737927;32;40848;-82
2022/09/20 04:31:52;;;;;;;4.82;2.37;;;;;;;10.59;68.98;99778.72;7715432;32;37548;-82
2022/09/20 04:36:30;;;;;;;4.12;2.58;;;;;;;10.72;68.24;99775.47;7712137;32;37871;-80
2022/09/20 04:41:11;;;;;;;4.35;2.53;;;;;;;10.75;67.78;99782.31;7712682;32;39435;-82
2022/09/20 04:45:33;;;;;;;3.92;2.60;;;;;;;10.78;67.65;99782.56;7712018;32;40684;-80
2022/09/20 04:50:09;;;;;;;5.57;2.45;;;;;;;10.59;68.21;99782.28;7711854;32;37840;-81
2022/09/20 04:54:44;;;;;;;4.75;2.67;;;;;;;10.46;68.56;99783.62;7711867;32;37668;-82
2022/09/20 04:59:09;;;;;;;5.20;2.60;;;;;;;10.60;68.16;99791.28;7711952;32;41008;-82
2022/09/20 05:03:47;;;;;;;3.70;2.37;;;;;;;10.43;68.69;99788.81;7711811;32;38851;-81
2022/09/20 05:08:38;;;;;;;4.78;3.08;;;;;;;10.42;68.92;99789.91;7711692;32;37881;-82
2022/09/20 05:13:15;;;;;;;3.70;2.60;;;;;;;10.10;70.44;99804.50;7711455;32;37911;-83
2022/09/20 05:18:13;;;;;;;5.30;2.67;;;;;;;10.13;69.81;99788.44;7711702;32;39386;-81
2022/09/20 05:22:54;;;;;;;4.47;2.97;;;;;;;10.45;69.20;99806.53;7705468;32;40046;-80
2022/09/20 05:27:25;;;;;;;7.10;3.03;;;;;;;10.46;69.33;99796.44;7724039;32;37982;-81
2022/09/20 05:32:20;;;;;;;6.43;3.05;;;;;;;10.65;68.63;99804.91;7738172;32;37360;-79
2022/09/20 05:36:51;;;;;;;4.18;2.92;;;;;;;10.09;70.75;99820.06;7738339;32;39173;-81
2022/09/20 05:41:30;;;;;;;4.60;3.08;;;;;;;10.47;69.63;99820.72;7736576;32;39975;-78
2022/09/20 05:45:58;;;;;;;4.80;2.70;;;;;;;10.28;70.09;99825.00;7724691;32;37969;-79
2022/09/20 05:50:34;;;;;;;5.22;3.03;;;;;;;10.45;70.03;99833.78;7710485;32;37063;-78
2022/09/20 05:55:27;;;;;;;4.65;2.83;;;;;;;10.51;69.96;99837.34;7711662;32;40854;-80
2022/09/20 06:00:16;;;;;;;3.50;2.55;;;;;;;10.85;70.21;99848.56;7724315;32;39005;-79
2022/09/20 06:04:50;;;;;;;6.53;2.85;;;;;;;10.63;70.03;99850.72;7710086;32;37941;-81
2022/09/20 06:09:37;;;;;;;3.33;2.40;;;;;;;10.77;69.92;99857.28;7696501;32;36959;-80
2022/09/20 06:14:03;;;;;;;4.90;2.50;;;;;;;10.67;69.62;99857.25;7696949;32;40263;-80
2022/09/20 06:18:56;;;;;;;5.90;2.95;;;;;;;11.12;68.60;99866.56;7709850;32;40956;-81
2022/09/20 06:23:12;;;;;;;8.35;2.58;;;;;;;10.74;69.77;99868.72;7685260;32;38386;-81
2022/09/20 06:27:34;;;;;;;3.92;2.67;;;;;;;10.87;69.09;99862.75;7709658;32;37596;-81
2022/09/20 06:31:51;;;;;;;3.95;2.72;;;;;;;10.93;68.90;99868.19;7731024;32;39405;-80
2022/09/20 06:45:25;;;;;;;5.60;2.78;;;;;;;10.47;69.30;99858.88;7728119;32;37764;-83
2022/09/20 06:49:41;;;;;;;3.40;2.60;;;;;;;10.53;69.50;99859.69;7727742;32;40063;-83
2022/09/20 06:53:57;;;;;;;2.70;2.30;;;;;;;11.22;67.59;99857.53;7710112;32;41241;-83
2022/09/20 06:58:13;;;;;;;6.68;2.83;;;;;;;11.50;67.63;99858.84;7710065;32;37889;-80
2022/09/20 07:02:29;;;;;;;5.35;3.00;;;;;;;11.23;67.51;99859.19;7721177;32;37936;-79
2022/09/20 07:06:45;;;;;;;4.93;2.83;;;;;;;11.83;66.78;99862.03;7725174;32;38988;-80
2022/09/20 07:11:15;;;;;;;4.57;2.70;;;;;;;11.64;66.84;99857.22;7735473;32;40600;-79
2022/09/20 07:15:32;;;;;;;6.47;2.60;;;;;;;11.38;67.70;99861.06;7734534;32;37925;-79
2022/09/20 07:19:48;;;;;;;4.22;2.83;;;;;;;11.39;67.78;99868.19;7736006;32;37192;-77
2022/09/20 07:24:04;;;;;;;5.45;3.10;;;;;;;12.17;65.37;99869.59;7735040;32;39352;-79
2022/09/20 07:28:20;;;;;;;5.82;3.45;;;;;;;12.37;64.86;99883.19;7735931;32;39999;-80
2022/09/20 07:32:36;;;;;;;5.60;2.75;;;;;;;12.88;63.41;99882.06;7734936;32;38068;-78
2022/09/20 07:36:52;;;;;;;3.05;2.70;;;;;;;13.19;63.00;99875.50;7735298;32;37209;-78
2022/09/20 07:41:09;;;;;;;4.78;2.65;;;;;;;13.41;62.31;99875.88;7734587;32;39415;-79
2022/09/20 07:45:25;;;;;;;4.78;3.03;;;;;;;13.47;62.03;99877.47;7735552;32;40021;-79
2022/09/20 07:49:41;;;;;;;4.65;3.10;;;;;;;12.92;62.90;99874.09;7734409;32;37936;-79
2022/09/20 07:53:57;;;;;;;6.68;2.85;;;;;;;12.67;64.53;99886.81;7722827;32;37872;-79
2022/09/20 07:58:13;;;;;;;5.35;3.03;;;;;;;12.84;62.79;99885.63;7737635;32;39373;-80
2022/09/20 08:02:29;;;;;;;4.72;2.60;;;;;;;13.11;64.40;99888.72;7738880;32;40910;-79
2022/09/20 08:06:45;;;;;;;4.93;2.85;;;;;;;13.29;63.31;99887.16;7739286;32;38795;-78
2022/09/20 08:11:13;;;;;;;5.78;3.00;;;;;;;13.05;63.51;99887.09;7739359;32;37114;-80
2022/09/20 08:15:30;;;;;;;6.53;3.10;;;;;;;13.21;64.63;99881.50;7737336;32;39365;-78
2022/09/20 08:19:46;;;;;;;3.55;2.67;;;;;;;13.98;61.53;99880.75;7736531;32;40475;-77
2022/09/20 08:24:03;;;;;;;4.28;2.80;;;;;;;14.05;61.08;99881.22;7738456;32;38318;-76
2022/09/20 08:28:19;;;;;;;4.97;2.97;;;;;;;14.31;60.07;99878.16;7725611;32;36992;-80
2022/09/20 08:32:39;;;;;;;4.70;2.50;;;;;;;14.61;59.21;99883.25;7723361;32;40266;-75
2022/09/20 08:36:55;;;;;;;3.10;2.47;;;;;;;14.40;58.07;99877.22;7735611;32;39967;-78
2022/09/20 08:41:38;;;;;;;5.05;2.62;;;;;;;14.53;59.02;99881.13;7719683;32;38353;-79
2022/09/20 08:45:57;;;;;;;5.03;2.97;;;;;;;14.65;57.76;99898.00;7710945;32;36694;-79
2022/09/20 08:50:14;;;;;;;3.58;2.50;;;;;;;14.71;57.64;99892.44;7711763;32;39351;-79
2022/09/20 08:54:33;;;;;;;4.12;2.70;;;;;;;14.13;57.82;99888.00;7711649;32;39933;-78
2022/09/20 08:58:49;;;;;;;3.30;2.50;;;;;;;14.04;58.76;99885.09;7710518;32;38593;-77
2022/09/20 09:03:11;;;;;;;3.95;2.87;;;;;;;14.67;57.19;99888.66;7709663;32;37135;-78
2022/09/20 09:07:27;;;;;;;5.68;2.53;;;;;;;14.61;57.73;99888.75;7710471;32;39273;-79
2022/09/20 09:11:44;;;;;;;4.32;2.78;;;;;;;15.08;56.81;99886.09;7710246;32;39574;-80
2022/09/20 09:16:11;;;;;;;4.28;2.53;;;;;;;15.18;55.67;99872.22;7711384;32;38768;-78
2022/09/20 09:20:28;;;;;;;4.07;2.50;;;;;;;15.20;53.91;99874.66;7711589;32;37821;-79
2022/09/20 09:24:44;;;;;;;7.25;2.90;;;;;;;15.63;54.22;99871.69;7711621;32;39881;-79
2022/09/20 09:29:20;;;;;;;6.37;2.72;;;;;;;14.94;55.80;99869.59;7716374;32;40773;-78
2022/09/20 09:33:41;;;;;;;3.60;2.33;;;;;;;15.06;55.37;99865.56;7734485;32;38832;-79
2022/09/20 09:37:59;;;;;;;3.47;2.60;;;;;;;14.43;55.80;99871.13;7725113;32;37074;-79
2022/09/20 09:42:25;;;;;;;3.95;2.50;;;;;;;14.35;55.37;99882.78;7716282;32;39059;-78
2022/09/20 09:46:41;;;;;;;5.10;2.60;;;;;;;14.36;55.82;99869.88;7720265;32;40748;-78
2022/09/20 09:51:10;;;;;;;2.05;1.87;;;;;;;14.33;56.92;99874.03;7720716;32;38650;-77
2022/09/20 09:56:01;;;;;;;7.03;2.10;;;;;;;15.27;55.64;99864.09;7738095;32;37196;-81
2022/09/20 10:00:22;;;;;;;2.83;2.00;;;;;;;16.07;52.75;99853.81;7735540;32;40082;-81
2022/09/20 10:05:04;;;;;;;2.70;1.85;;;;;;;16.34;51.65;99861.22;7736751;32;40891;-82
2022/09/20 10:09:23;;;;;;;2.50;1.77;;;;;;;16.98;49.05;99854.81;7737800;32;37983;-79
2022/09/20 10:13:54;;;;;;;2.50;1.90;;;;;;;16.83;49.86;99846.91;7736950;32;37028;-79
2022/09/20 10:18:38;;;;;;;2.17;1.62;;;;;;;16.73;48.27;99842.47;7727401;32;39252;-77
2022/09/20 10:23:03;;;;;;;2.58;1.62;;;;;;;16.29;48.65;99846.75;7710996;32;40126;-82
2022/09/20 10:28:04;;;;;;;2.83;1.73;;;;;;;16.95;48.09;99840.84;7710357;32;38280;-81
2022/09/20 10:32:48;;;;;;;4.25;1.77;;;;;;;17.13;47.59;99834.34;7710746;32;36720;-80
2022/09/20 10:37:14;;;;;;;2.30;1.37;;;;;;;16.63;48.67;99842.69;7710763;32;40093;-79
2022/09/20 10:46:51;;;;;;;3.05;1.55;;;;;;;17.71;44.72;99817.91;7710214;32;38469;-81
2022/09/20 10:51:46;;;;;;;1.90;1.50;;;;;;;17.97;43.02;99824.38;7710475;32;37653;-77
2022/09/20 10:56:22;;;;;;;1.62;1.50;;;;;;;17.86;44.62;99834.06;7710303;32;39008;-79
2022/09/20 11:00:42;;;;;;;2.58;1.50;;;;;;;18.04;44.55;99832.19;7710165;32;39999;-78
2022/09/20 11:05:27;;;;;;;1.87;1.55;;;;;;;17.60;45.62;99834.75;7710079;32;37951;-78
2022/09/20 11:10:03;;;;;;;2.78;1.65;;;;;;;17.59;46.11;99827.63;7709261;32;37747;-79
2022/09/20 11:14:33;;;;;;;2.30;1.70;;;;;;;16.79;47.24;99841.19;7708940;32;39313;-79
2022/09/20 11:19:00;;;;;;;1.70;1.55;;;;;;;16.84;48.33;99837.56;7708623;32;39965;-79
2022/09/20 11:23:21;;;;;;;12.48;2.35;;;;;;;16.80;48.83;99836.50;7709513;32;38666;-81
2022/09/20 11:28:00;;;;;;;3.15;2.00;;;;;;;16.83;49.33;99836.72;7711174;32;37426;-78
2022/09/20 11:32:35;;;;;;;2.30;1.92;;;;;;;16.63;48.80;99823.44;7712107;32;39365;-77
2022/09/20 11:37:04;;;;;;;1.92;1.70;;;;;;;16.23;49.50;99828.72;7712905;32;40249;-79
2022/09/20 11:41:26;;;;;;;2.65;1.77;;;;;;;17.73;46.67;99805.47;7712942;32;37881;-78
2022/09/20 11:45:44;;;;;;;2.00;1.67;;;;;;;18.07;43.82;99803.13;7711882;32;36962;-78
2022/09/20 11:50:37;;;;;;;3.58;1.80;;;;;;;19.19;41.91;99811.72;7711694;32;39366;-80
2022/09/20 11:54:59;;;;;;;2.60;1.45;;;;;;;18.04;43.38;99810.13;7712652;32;40051;-78
2022/09/20 11:59:32;;;;;;;1.67;1.10;;;;;;;18.17;42.08;99802.81;7712373;32;38036;-78
2022/09/20 12:03:51;;;;;;;1.95;1.27;;;;;;;18.99;41.27;99800.25;7712496;32;36986;-79
2022/09/20 12:08:34;;;;;;;1.45;1.15;;;;;;;19.40;38.00;99793.28;7711977;32;40311;-79
2022/09/20 12:12:58;;;;;;;2.23;1.30;;;;;;;18.79;40.11;99795.37;7712106;32;40829;-79
2022/09/20 12:17:45;;;;;;;2.55;1.15;;;;;;;17.77;41.89;99789.09;7711028;32;38136;-80
2022/09/20 12:22:02;;;;;;;1.85;1.50;;;;;;;17.53;43.16;99784.78;7712667;32;37114;-78
2022/09/20 12:26:19;;;;;;;1.62;1.35;;;;;;;16.99;44.32;99781.25;7723890;32;37177;-79
2022/09/20 12:30:35;;;;;;;1.42;1.27;;;;;;;17.08;44.86;99779.41;7766041;32;39689;-80
2022/09/20 12:34:51;;;;;;;2.25;1.60;;;;;;;17.74;43.66;99775.94;7723949;32;37922;-78
2022/09/20 12:39:10;;;;;;;1.55;1.45;;;;;;;17.80;43.41;99774.66;7712342;32;37135;-78
2022/09/20 12:43:27;;;;;;;1.33;1.23;;;;;;;17.20;44.70;99787.06;7712097;32;39341;-79
2022/09/20 12:47:53;;;;;;;2.40;1.50;;;;;;;16.97;47.36;99797.28;7730640;32;40105;-78
2022/09/20 12:52:49;;;;;;;2.22;1.40;;;;;;;16.51;49.23;99804.72;7723711;32;38632;-79
2022/09/20 12:57:31;;;;;;;3.95;2.10;;;;;;;16.42;50.50;99812.91;7730855;32;37379;-77
2022/09/20 13:01:47;;;;;;;2.78;1.40;;;;;;;16.26;50.11;99812.41;7730255;32;40091;-79
2022/09/20 13:06:06;;;;;;;1.65;1.50;;;;;;;16.58;47.27;99799.59;7737538;32;40522;-79
2022/09/20 13:10:25;;;;;;;1.12;1.00;;;;;;;16.31;45.19;99795.00;7732809;32;38420;-79
2022/09/20 13:14:43;;;;;;;2.67;1.10;;;;;;;17.49;43.98;99789.31;7732408;32;36666;-79
2022/09/20 13:19:11;;;;;;;2.17;1.30;;;;;;;17.30;44.56;99786.81;7732048;32;39275;-78
2022/09/20 13:23:29;;;;;;;2.65;1.40;;;;;;;17.48;44.57;99789.63;7734859;32;39107;-78
2022/09/20 13:28:19;;;;;;;1.67;1.17;;;;;;;15.96;47.68;99805.66;7714307;32;39877;-78
2022/09/20 13:32:40;;;;;;;2.50;1.48;;;;;;;16.42;47.59;99801.06;7710751;32;37284;-78
2022/09/20 13:36:59;;;;;;;2.45;1.45;;;;;;;15.87;48.20;99808.31;7711198;32;39548;-77
2022/09/20 13:41:15;;;;;;;3.35;1.55;;;;;;;15.53;49.22;99804.00;7701058;32;41369;-78
2022/09/20 13:45:31;;;;;;;2.30;1.42;;;;;;;15.85;49.70;99806.97;7723668;32;37899;-77
2022/09/20 13:49:49;;;;;;;4.28;1.60;;;;;;;15.83;48.99;99807.28;7736439;32;37067;-76
2022/09/20 13:54:31;;;;;;;1.25;1.15;;;;;;;15.82;48.40;99802.94;7737439;32;40066;-78
2022/09/20 13:58:48;;;;;;;1.77;1.60;;;;;;;15.81;49.01;99811.47;7723957;32;40814;-76
2022/09/20 14:03:04;;;;;;;2.10;1.70;;;;;;;15.49;49.77;99813.97;7737131;32;38161;-78
2022/09/20 14:07:24;;;;;;;2.95;2.00;;;;;;;15.70;49.31;99808.09;7730387;32;37825;-78
2022/09/20 14:11:40;;;;;;;3.15;1.80;;;;;;;15.92;49.78;99807.41;7732916;32;39326;-78
2022/09/20 14:15:57;;;;;;;2.85;1.67;;;;;;;15.46;50.64;99808.28;7764535;32;39995;-79
2022/09/20 14:20:16;;;;;;;2.53;1.70;;;;;;;15.61;50.78;99810.75;7755224;32;37941;-78
2022/09/20 14:24:36;;;;;;;3.00;2.00;;;;;;;15.35;52.04;99810.37;7764123;32;37317;-78
2022/09/20 14:28:52;;;;;;;3.08;2.22;;;;;;;15.39;51.34;99808.69;7764725;32;40219;-77
2022/09/20 14:33:17;;;;;;;3.65;2.28;;;;;;;14.98;53.05;99807.47;7763557;32;39886;-76
2022/09/20 14:37:47;;;;;;;3.97;2.12;;;;;;;14.97;52.82;99810.50;7751096;32;37946;-77
2022/09/20 14:42:13;;;;;;;3.40;2.08;;;;;;;15.40;52.63;99811.13;7756025;32;37126;-78
2022/09/20 14:46:35;;;;;;;4.95;2.03;;;;;;;15.65;52.50;99809.00;7751426;32;38890;-77
2022/09/20 14:51:17;;;;;;;4.57;2.50;;;;;;;15.61;52.45;99816.25;7750244;32;39887;-78
2022/09/20 14:55:34;;;;;;;4.45;2.45;;;;;;;16.02;51.64;99815.41;7763353;32;37981;-78
2022/09/20 14:59:58;;;;;;;4.12;1.75;;;;;;;15.32;52.82;99820.06;7763528;32;37162;-77
2022/09/20 15:04:20;;;;;;;3.20;1.73;;;;;;;15.29;51.69;99815.16;7766361;32;39101;-78
2022/09/20 15:08:36;;;;;;;2.00;1.73;;;;;;;15.14;51.26;99826.44;7753244;32;39991;-78
2022/09/20 15:12:57;;;;;;;4.25;1.85;;;;;;;15.03;52.09;99823.84;7752972;32;37916;-80
2022/09/20 15:17:17;;;;;;;5.37;2.35;;;;;;;14.53;52.41;99837.25;7766585;32;37865;-78
2022/09/20 15:21:33;;;;;;;2.53;1.80;;;;;;;14.65;53.12;99845.88;7753323;32;39475;-78
2022/09/20 15:25:51;;;;;;;3.97;2.30;;;;;;;14.75;53.47;99847.66;7766204;32;40833;-78
2022/09/20 15:30:10;;;;;;;2.50;2.10;;;;;;;14.83;53.15;99848.87;7766257;32;38604;-78
2022/09/20 15:34:26;;;;;;;5.03;2.70;;;;;;;14.71;54.07;99859.50;7766450;32;37737;-78
2022/09/20 15:38:42;;;;;;;4.78;2.95;;;;;;;14.81;53.96;99854.72;7766379;32;39022;-83
2022/09/20 15:42:58;;;;;;;5.85;2.58;;;;;;;14.26;56.26;99855.19;7758254;32;39729;-80
2022/09/20 15:47:14;;;;;;;5.35;2.55;;;;;;;14.73;55.22;99860.03;7742780;32;37940;-80
2022/09/20 15:51:30;;;;;;;4.82;2.62;;;;;;;14.43;55.92;99864.81;7745946;32;37921;-78
2022/09/20 15:55:46;;;;;;;3.60;2.53;;;;;;;14.23;56.67;99861.25;7749269;32;39194;-78
2022/09/20 16:00:03;;;;;;;4.30;1.87;;;;;;;14.31;56.97;99861.69;7711901;32;39958;-77
2022/09/20 16:04:20;;;;;;;2.25;1.75;;;;;;;14.00;57.51;99864.84;7712120;32;37631;-78
2022/09/20 16:08:38;;;;;;;2.28;1.50;;;;;;;14.30;56.13;99862.81;7712313;32;36744;-78
2022/09/20 16:12:54;;;;;;;4.72;2.05;;;;;;;14.51;54.27;99860.62;7712135;32;38370;-79
2022/09/20 16:17:10;;;;;;;9.48;4.00;;;;;;;14.25;54.31;99863.72;7711731;32;40006;-78
2022/09/20 16:21:26;;;;;;;5.82;2.53;;;;;;;14.18;54.59;99858.59;7711935;32;38713;-79
2022/09/20 16:25:42;;;;;;;3.42;1.75;;;;;;;13.82;55.11;99867.22;7712016;32;37118;-79
2022/09/20 16:29:58;;;;;;;4.22;2.05;;;;;;;13.85;54.34;99866.66;7711837;32;40089;-78
2022/09/20 16:34:21;;;;;;;4.07;2.22;;;;;;;13.57;54.76;99868.31;7712079;32;39988;-78
2022/09/20 16:38:37;;;;;;;4.18;2.10;;;;;;;13.57;54.83;99864.78;7711835;32;37927;-79
2022/09/20 16:42:57;;;;;;;4.55;2.12;;;;;;;13.14;56.11;99871.72;7708385;32;37329;-78
2022/09/20 16:47:20;;;;;;;4.55;2.33;;;;;;;13.48;55.04;99868.12;7711568;32;40036;-79
2022/09/20 16:51:41;;;;;;;3.80;2.05;;;;;;;12.90;56.77;99884.47;7711672;32;40775;-77
2022/09/20 16:55:57;;;;;;;2.12;1.60;;;;;;;12.87;56.29;99887.81;7711601;32;37671;-78
2022/09/20 17:00:15;;;;;;;1.50;1.37;;;;;;;13.12;55.22;99890.34;7711592;32;37242;-78
2022/09/20 17:04:31;;;;;;;1.98;1.77;;;;;;;13.05;55.03;99892.56;7712039;32;38482;-79
2022/09/20 17:08:50;;;;;;;1.83;1.73;;;;;;;12.95;55.52;99898.97;7711244;32;39852;-78
2022/09/20 17:13:14;;;;;;;2.33;1.40;;;;;;;13.15;55.10;99908.09;7711156;32;38709;-79
2022/09/20 17:17:30;;;;;;;3.28;1.52;;;;;;;13.08;54.93;99907.63;7710162;32;37215;-79
2022/09/20 17:21:48;;;;;;;1.98;1.60;;;;;;;12.69;56.28;99928.38;7711230;32;39258;-78
2022/09/20 17:26:10;;;;;;;2.20;1.45;;;;;;;13.05;55.59;99925.41;7710494;32;39948;-78
2022/09/20 17:30:27;;;;;;;5.82;2.90;;;;;;;13.07;55.60;99928.72;7711184;32;37946;-78
2022/09/20 17:34:43;;;;;;;6.18;2.90;;;;;;;13.03;55.43;99927.63;7711618;32;37827;-78
2022/09/20 17:39:00;;;;;;;7.62;3.08;;;;;;;12.70;56.36;99935.50;7710733;32;40061;-79
2022/09/20 17:43:20;;;;;;;5.05;2.78;;;;;;;12.56;57.17;99937.22;7711431;32;40878;-78
2022/09/20 17:47:36;;;;;;;5.10;3.03;;;;;;;12.83;56.57;99941.44;7710080;32;37573;-78
2022/09/20 17:51:53;;;;;;;2.97;1.90;;;;;;;12.40;58.11;99948.25;7711510;32;37599;-79
2022/09/20 17:56:12;;;;;;;2.42;1.87;;;;;;;12.27;58.63;99957.03;7711335;32;38437;-80
2022/09/20 18:00:28;;;;;;;4.10;2.15;;;;;;;12.43;58.04;99956.97;7711365;32;40584;-79
2022/09/20 18:04:44;;;;;;;2.30;1.73;;;;;;;11.91;59.55;99959.84;7711195;32;38414;-80
2022/09/20 18:09:03;;;;;;;2.12;1.83;;;;;;;12.11;59.52;99964.47;7703600;32;250422;-79
2022/09/20 18:13:19;;;;;;;2.42;2.00;;;;;;;12.23;58.69;99964.16;7711022;32;40111;-78
2022/09/20 18:17:35;;;;;;;3.33;1.83;;;;;;;12.26;58.38;99971.78;7711047;32;39968;-79
2022/09/20 18:21:51;;;;;;;4.35;2.33;;;;;;;11.96;59.25;99975.44;7710997;32;38133;-80
2022/09/20 18:26:21;;;;;;;2.40;2.20;;;;;;;11.78;60.28;99985.81;7710851;32;37161;-82
2022/09/20 18:30:38;;;;;;;3.15;2.17;;;;;;;11.98;59.71;99995.09;7710646;32;40099;-80
2022/09/20 18:34:55;;;;;;;1.92;1.77;;;;;;;12.06;59.39;100008.19;7710308;32;39565;-80
2022/09/20 18:39:11;;;;;;;2.47;1.80;;;;;;;12.07;59.49;99998.09;7710292;32;36602;-80
2022/09/20 18:43:29;;;;;;;4.93;2.10;;;;;;;12.00;59.57;99998.38;7710381;32;37127;-81
2022/09/20 18:47:45;;;;;;;29.33;14.13;;;;;;;11.94;60.06;100005.75;7721674;32;39339;-81
2022/09/20 18:52:02;;;;;;;16.75;8.50;;;;;;;12.15;59.85;100019.38;7710446;32;39615;-81
2022/09/20 18:56:30;;;;;;;5.80;3.05;;;;;;;11.91;60.13;100014.50;7710032;32;38748;-79
2022/09/20 19:00:54;;;;;;;4.70;2.55;;;;;;;12.07;59.20;100014.47;7721085;32;37109;-78
2022/09/20 19:05:16;;;;;;;4.43;2.72;;;;;;;12.15;58.91;100016.66;7714592;32;39326;-79
2022/09/20 19:09:54;;;;;;;6.97;2.30;;;;;;;12.20;59.08;100025.66;7714045;32;40018;-80
2022/09/20 19:14:20;;;;;;;6.03;2.50;;;;;;;12.15;59.09;100031.13;7716834;32;37737;-81
2022/09/20 19:18:57;;;;;;;4.75;2.45;;;;;;;11.83;60.26;100021.31;7732434;32;37800;-81
2022/09/20 19:23:41;;;;;;;4.53;2.33;;;;;;;12.08;59.38;100022.41;7730822;32;40080;-80
2022/09/20 19:27:57;;;;;;;4.43;2.50;;;;;;;12.06;59.23;100023.78;7721387;32;40013;-79
2022/09/20 19:32:19;;;;;;;4.28;1.90;;;;;;;12.35;58.06;100019.34;7734607;32;36710;-80
2022/09/20 19:36:47;;;;;;;3.20;2.15;;;;;;;11.13;61.50;100026.44;7714952;32;36799;-80
2022/09/20 19:41:40;;;;;;;5.00;2.00;;;;;;;11.94;59.64;100019.41;7734024;32;40260;-81
2022/09/20 19:46:09;;;;;;;3.03;1.73;;;;;;;12.24;59.28;100020.44;7719999;32;39826;-80
2022/09/20 19:50:42;;;;;;;2.33;1.65;;;;;;;12.05;60.10;100024.88;7730827;32;38151;-80
2022/09/20 19:54:58;;;;;;;3.97;1.87;;;;;;;12.34;59.07;100036.81;7726759;32;37145;-80
2022/09/20 19:59:16;;;;;;;2.85;1.90;;;;;;;12.34;59.06;100036.81;7733339;32;40019;-78
2022/09/20 20:03:32;;;;;;;3.90;1.60;;;;;;;11.55;61.88;100038.25;7729416;32;40756;-80
2022/09/20 20:08:05;;;;;;;2.70;1.80;;;;;;;11.73;61.82;100039.59;7723719;32;37912;-79
2022/09/20 20:13:02;;;;;;;3.42;2.12;;;;;;;11.79;60.89;100042.06;7731136;32;37190;-77
2022/09/20 20:17:27;;;;;;;3.37;2.20;;;;;;;11.61;61.89;100051.63;7739243;32;39480;-80
2022/09/20 20:22:18;;;;;;;3.92;2.30;;;;;;;11.83;60.84;100053.25;7738096;32;41139;-80
2022/09/20 20:26:34;;;;;;;2.20;2.00;;;;;;;11.94;60.45;100051.41;7706813;32;38479;-78
2022/09/20 20:30:50;;;;;;;3.42;2.40;;;;;;;11.88;60.47;100061.44;7732938;32;36768;-81
2022/09/20 20:35:07;;;;;;;4.72;2.05;;;;;;;11.82;60.35;100051.63;7728838;32;39109;-81
2022/09/20 20:39:24;;;;;;;4.68;2.87;;;;;;;11.64;60.88;100051.09;7723195;32;39603;-81
2022/09/20 20:43:42;;;;;;;4.78;2.70;;;;;;;11.35;61.68;100055.41;7717775;32;37982;-78
2022/09/20 20:47:58;;;;;;;5.97;3.17;;;;;;;11.61;60.99;100059.81;7712049;32;37394;-79
2022/09/20 20:52:14;;;;;;;4.15;2.33;;;;;;;11.74;60.82;100061.19;7720210;32;39481;-79
2022/09/20 20:56:30;;;;;;;3.78;2.33;;;;;;;11.60;60.96;100066.38;7738683;32;40810;-78
2022/09/20 21:00:46;;;;;;;4.45;2.30;;;;;;;12.01;59.48;100066.41;7710750;32;37900;-78